Time;durP1;ratioP1;P1;durP2;ratioP2;P2;SDS_P1;SDS_P2;PMS_P1;PMS_P2;Temp;Humidity;BMP_temperature;BMP_pressure;BME280_temperature;BME280_humidity;BME280_pressure;Samples;Min_cycle;Max_cycle;Signal;HPM_P1;HPM_P2
2021/06/03 00:00:59;;;;;;;4.32;2.60;;;20.60;99.90;;;;;;5059239;28;20442;-55
2021/06/03 00:03:27;;;;;;;4.13;2.65;;;20.50;99.90;;;;;;5061950;28;20025;-54
2021/06/03 00:05:58;;;;;;;4.60;2.92;;;20.40;99.90;;;;;;5056691;28;20036;-54
2021/06/03 00:08:28;;;;;;;4.63;2.80;;;20.30;99.90;;;;;;5066066;28;20021;-57
2021/06/03 00:11:04;;;;;;;4.05;2.75;;;20.30;99.90;;;;;;5064317;28;20093;-55
2021/06/03 00:13:32;;;;;;;3.40;2.97;;;20.30;99.90;;;;;;5060712;28;20418;-56
2021/06/03 00:16:01;;;;;;;4.35;2.88;;;20.30;99.90;;;;;;5062477;28;20490;-55
2021/06/03 00:18:27;;;;;;;6.57;3.50;;;20.10;99.90;;;;;;5062866;28;20036;-56
2021/06/03 00:20:55;;;;;;;3.30;2.70;;;20.10;99.90;;;;;;5062000;28;20021;-58
2021/06/03 00:23:20;;;;;;;4.53;3.05;;;20.00;99.90;;;;;;5063095;28;20024;-57
2021/06/03 00:25:46;;;;;;;4.88;2.53;;;19.90;99.90;;;;;;5060865;28;20478;-56
2021/06/03 00:28:12;;;;;;;3.95;2.92;;;19.90;99.90;;;;;;5058104;28;20083;-56
2021/06/03 00:30:37;;;;;;;4.75;2.92;;;19.80;99.90;;;;;;5065328;28;20069;-55
2021/06/03 00:33:03;;;;;;;7.35;2.97;;;19.70;99.90;;;;;;5070497;28;20044;-55
2021/06/03 00:35:29;;;;;;;6.63;3.40;;;19.60;99.90;;;;;;5069380;28;20035;-53
2021/06/03 00:37:55;;;;;;;8.88;4.68;;;19.60;99.90;;;;;;5069550;28;20036;-52
2021/06/03 00:40:22;;;;;;;5.90;3.50;;;19.50;99.90;;;;;;5070034;28;20032;-55
2021/06/03 00:42:48;;;;;;;6.82;3.20;;;19.40;99.90;;;;;;5068283;28;20032;-55
2021/06/03 00:45:36;;;;;;;5.97;3.15;;;19.40;99.90;;;;;;5069654;28;20486;-50
2021/06/03 00:48:03;;;;;;;5.32;2.90;;;19.20;99.90;;;;;;5070816;28;20016;-54
2021/06/03 00:50:34;;;;;;;4.78;2.80;;;19.20;99.90;;;;;;5069481;28;20772;-53
2021/06/03 00:53:02;;;;;;;5.50;3.85;;;19.10;99.90;;;;;;5069164;28;20037;-53
2021/06/03 00:55:28;;;;;;;20.58;11.15;;;19.00;99.90;;;;;;5072051;28;20375;-55
2021/06/03 00:57:53;;;;;;;7.85;5.63;;;19.00;99.90;;;;;;5070412;28;20036;-56
2021/06/03 01:00:20;;;;;;;8.30;4.60;;;18.90;99.90;;;;;;5069193;28;20035;-56
2021/06/03 01:02:45;;;;;;;8.35;5.43;;;18.80;99.90;;;;;;5069242;28;20616;-56
2021/06/03 01:05:22;;;;;;;14.07;6.50;;;18.70;99.90;;;;;;5069289;28;20029;-53
2021/06/03 01:07:50;;;;;;;9.75;6.65;;;18.70;99.90;;;;;;5069010;28;20013;-57
2021/06/03 01:10:36;;;;;;;10.13;6.78;;;18.70;99.90;;;;;;5070343;28;20543;-57
2021/06/03 01:13:20;;;;;;;11.27;5.97;;;18.60;99.90;;;;;;5067972;28;20032;-56
2021/06/03 01:15:47;;;;;;;10.83;5.43;;;18.60;99.90;;;;;;5070445;28;20052;-55
2021/06/03 01:18:14;;;;;;;7.82;4.40;;;18.50;99.90;;;;;;5072574;28;20036;-57
2021/06/03 01:20:42;;;;;;;5.07;3.65;;;18.50;99.90;;;;;;5068328;28;20482;-55
2021/06/03 01:23:17;;;;;;;7.68;4.15;;;18.40;99.90;;;;;;5068353;28;20581;-51
2021/06/03 01:25:45;;;;;;;7.22;3.85;;;18.40;99.90;;;;;;5069139;28;20037;-57
2021/06/03 01:28:11;;;;;;;4.93;3.92;;;18.30;99.90;;;;;;5068912;28;20437;-55
2021/06/03 01:30:46;;;;;;;6.07;4.43;;;18.20;99.90;;;;;;5072486;28;20020;-57
2021/06/03 01:33:16;;;;;;;7.22;4.03;;;18.10;99.90;;;;;;5071938;28;20497;-58
2021/06/03 01:35:48;;;;;;;11.27;4.47;;;18.00;99.90;;;;;;5074696;28;20490;-54
2021/06/03 01:38:18;;;;;;;6.57;3.80;;;17.90;99.90;;;;;;5072595;28;20043;-57
2021/06/03 01:40:46;;;;;;;5.95;4.05;;;17.90;99.90;;;;;;5072033;28;20413;-56
2021/06/03 01:43:14;;;;;;;7.80;4.13;;;17.90;99.90;;;;;;5072400;28;20062;-56
2021/06/03 01:45:40;;;;;;;4.00;3.40;;;17.80;99.90;;;;;;5071826;28;20498;-54
2021/06/03 01:48:09;;;;;;;7.53;4.32;;;17.90;99.90;;;;;;5077853;28;20035;-54
2021/06/03 01:50:35;;;;;;;9.57;4.38;;;17.90;99.90;;;;;;5072506;28;20028;-55
2021/06/03 01:53:01;;;;;;;7.45;3.92;;;17.90;99.90;;;;;;5071803;28;20028;-55
2021/06/03 01:55:29;;;;;;;8.35;3.85;;;17.90;99.90;;;;;;5077032;28;20036;-54
2021/06/03 01:57:56;;;;;;;5.32;3.75;;;17.90;99.90;;;;;;5070761;28;20508;-55
2021/06/03 02:00:23;;;;;;;5.45;3.75;;;17.90;99.90;;;;;;5073230;28;20035;-56
2021/06/03 02:02:49;;;;;;;7.35;3.65;;;17.90;99.90;;;;;;5080808;28;20363;-55
2021/06/03 02:05:15;;;;;;;9.85;3.55;;;17.90;99.90;;;;;;5066128;28;20082;-56
2021/06/03 02:07:41;;;;;;;6.68;3.40;;;17.90;99.90;;;;;;5072205;28;20107;-57
2021/06/03 02:10:08;;;;;;;5.72;3.58;;;17.90;99.90;;;;;;5073155;28;20111;-56
2021/06/03 02:12:37;;;;;;;5.28;3.35;;;17.90;99.90;;;;;;5071312;28;20029;-54
2021/06/03 02:15:07;;;;;;;5.18;3.55;;;18.00;99.90;;;;;;5072140;28;20033;-55
2021/06/03 02:17:42;;;;;;;6.50;3.13;;;18.00;99.90;;;;;;5076074;28;20035;-55
2021/06/03 02:20:17;;;;;;;3.72;3.15;;;17.90;99.90;;;;;;5071693;28;20378;-56
2021/06/03 02:22:47;;;;;;;3.25;2.95;;;18.00;99.90;;;;;;5075532;28;20028;-56
2021/06/03 02:25:13;;;;;;;5.88;3.47;;;17.90;99.90;;;;;;5071589;28;20482;-53
2021/06/03 02:27:39;;;;;;;4.40;3.30;;;17.90;99.90;;;;;;5071380;28;20051;-55
2021/06/03 02:30:07;;;;;;;4.25;3.50;;;17.90;99.90;;;;;;5071603;28;20032;-55
2021/06/03 02:32:35;;;;;;;5.05;3.80;;;17.90;99.90;;;;;;5073539;28;20082;-53
2021/06/03 02:35:02;;;;;;;4.97;3.65;;;17.80;99.90;;;;;;5070722;28;20071;-55
2021/06/03 02:37:27;;;;;;;5.13;4.00;;;17.70;99.90;;;;;;5072243;28;20036;-53
2021/06/03 02:40:07;;;;;;;4.55;3.47;;;17.70;99.90;;;;;;5075457;28;20036;-53
2021/06/03 02:42:33;;;;;;;7.05;3.55;;;17.70;99.90;;;;;;5071772;28;20577;-55
2021/06/03 02:44:58;;;;;;;3.20;2.90;;;17.70;99.90;;;;;;5071395;28;20119;-56
2021/06/03 02:47:26;;;;;;;6.03;3.65;;;17.70;99.90;;;;;;5075195;28;20024;-53
2021/06/03 02:49:52;;;;;;;6.75;3.67;;;17.70;99.90;;;;;;5071657;28;20474;-55
2021/06/03 02:52:17;;;;;;;4.35;3.45;;;17.70;99.90;;;;;;5070912;28;20107;-57
2021/06/03 02:54:44;;;;;;;5.05;3.33;;;17.70;99.90;;;;;;5071461;28;20033;-56
2021/06/03 02:57:09;;;;;;;6.90;3.45;;;17.70;99.90;;;;;;5078159;28;20040;-54
2021/06/03 02:59:35;;;;;;;8.55;2.85;;;17.70;99.90;;;;;;5071960;28;20028;-54
2021/06/03 03:02:01;;;;;;;6.35;3.25;;;17.70;99.90;;;;;;5070840;28;20104;-56
2021/06/03 03:04:26;;;;;;;5.50;3.53;;;17.70;99.90;;;;;;5070752;28;20070;-54
2021/06/03 03:06:52;;;;;;;4.43;3.33;;;17.70;99.90;;;;;;5071079;28;20029;-55
2021/06/03 03:09:17;;;;;;;3.80;3.45;;;17.60;99.90;;;;;;5070674;28;20028;-52
2021/06/03 03:11:43;;;;;;;7.13;2.97;;;17.50;99.90;;;;;;5073215;28;20052;-54
2021/06/03 03:14:09;;;;;;;3.92;3.17;;;17.60;99.90;;;;;;5073996;28;20024;-51
2021/06/03 03:16:34;;;;;;;4.10;2.95;;;17.50;99.90;;;;;;5072339;28;20028;-55
2021/06/03 03:19:00;;;;;;;6.00;3.00;;;17.50;99.90;;;;;;5074598;28;20162;-53
2021/06/03 03:21:26;;;;;;;4.50;3.03;;;17.50;99.90;;;;;;5070478;28;20020;-53
2021/06/03 03:23:51;;;;;;;5.95;3.30;;;17.50;99.90;;;;;;5070090;28;20402;-56
2021/06/03 03:26:17;;;;;;;6.35;3.53;;;17.50;99.90;;;;;;5070022;28;20379;-55
2021/06/03 03:28:42;;;;;;;9.55;2.83;;;17.40;99.90;;;;;;5070557;28;20313;-51
2021/06/03 03:31:08;;;;;;;4.65;3.08;;;17.40;99.90;;;;;;5070380;28;20020;-54
2021/06/03 03:33:34;;;;;;;6.10;3.47;;;17.30;99.90;;;;;;5075333;28;20449;-57
2021/06/03 03:36:00;;;;;;;4.90;3.42;;;17.30;99.90;;;;;;5071068;28;20117;-54
2021/06/03 03:38:25;;;;;;;6.50;2.85;;;17.30;99.90;;;;;;5070727;28;20032;-54
2021/06/03 03:40:52;;;;;;;8.43;2.95;;;17.30;99.90;;;;;;5070147;28;20048;-56
2021/06/03 03:43:18;;;;;;;6.30;3.00;;;17.30;99.90;;;;;;5069437;28;20039;-53
2021/06/03 03:45:44;;;;;;;5.32;3.53;;;17.30;99.90;;;;;;5074737;22;20457;-60
2021/06/03 03:48:09;;;;;;;6.22;3.67;;;17.30;99.90;;;;;;5050396;28;20056;-55
2021/06/03 03:50:36;;;;;;;3.60;2.67;;;17.30;99.90;;;;;;5051512;28;20104;-52
2021/06/03 03:53:03;;;;;;;5.40;3.13;;;17.20;99.90;;;;;;5047746;28;20036;-57
2021/06/03 03:55:29;;;;;;;3.90;2.67;;;17.20;99.90;;;;;;5048684;28;20052;-56
2021/06/03 03:57:55;;;;;;;4.90;3.45;;;17.20;99.90;;;;;;5048517;28;20483;-57
2021/06/03 04:00:24;;;;;;;4.80;2.78;;;17.20;99.90;;;;;;5049215;28;20025;-55
2021/06/03 04:02:50;;;;;;;5.10;3.30;;;17.10;99.90;;;;;;5048107;28;20037;-55
2021/06/03 04:05:15;;;;;;;4.18;3.15;;;17.10;99.90;;;;;;5047833;28;20029;-53
2021/06/03 04:07:42;;;;;;;3.90;3.15;;;17.10;99.90;;;;;;5048941;28;20060;-60
2021/06/03 04:10:13;;;;;;;7.75;3.53;;;17.10;99.90;;;;;;5048530;28;20036;-58
2021/06/03 04:12:38;;;;;;;5.90;4.00;;;17.10;99.90;;;;;;5048273;28;20397;-52
2021/06/03 04:15:06;;;;;;;6.03;3.75;;;17.10;99.90;;;;;;5048258;28;20104;-56
2021/06/03 04:17:31;;;;;;;4.07;3.38;;;17.10;99.90;;;;;;5051522;28;20109;-61
2021/06/03 04:19:57;;;;;;;6.28;3.50;;;17.00;99.90;;;;;;5042026;28;20105;-57
2021/06/03 04:22:23;;;;;;;4.30;3.70;;;17.00;99.90;;;;;;5048080;28;20036;-59
2021/06/03 04:24:49;;;;;;;5.78;3.10;;;17.00;99.90;;;;;;5048767;28;20013;-57
2021/06/03 04:27:14;;;;;;;6.30;3.50;;;17.00;99.90;;;;;;5053101;28;20025;-59
2021/06/03 04:29:40;;;;;;;5.18;3.40;;;17.00;99.90;;;;;;5049268;28;20028;-58
2021/06/03 04:32:07;;;;;;;6.70;3.40;;;17.00;99.90;;;;;;5050018;28;20070;-59
2021/06/03 04:34:33;;;;;;;5.30;3.42;;;17.00;99.90;;;;;;5047545;28;20116;-57
2021/06/03 04:36:59;;;;;;;5.60;3.20;;;17.00;99.90;;;;;;5049377;28;20033;-57
2021/06/03 04:39:25;;;;;;;4.00;3.10;;;17.00;99.90;;;;;;5048555;28;20028;-56
2021/06/03 04:41:50;;;;;;;5.90;3.38;;;17.00;99.90;;;;;;5052956;28;20035;-57
2021/06/03 04:44:16;;;;;;;7.30;3.80;;;17.00;99.90;;;;;;5048628;28;20442;-58
2021/06/03 04:46:41;;;;;;;9.23;4.07;;;17.10;99.90;;;;;;5047834;28;20043;-58
2021/06/03 04:49:07;;;;;;;4.82;3.30;;;17.10;99.90;;;;;;5048326;28;20081;-59
2021/06/03 04:51:34;;;;;;;4.28;3.35;;;17.20;99.90;;;;;;5048203;28;20440;-55
2021/06/03 04:54:00;;;;;;;4.45;3.40;;;17.30;99.90;;;;;;5048120;28;20105;-59
2021/06/03 04:56:26;;;;;;;3.80;2.95;;;17.30;99.90;;;;;;5048137;28;20031;-58
2021/06/03 04:58:51;;;;;;;3.78;3.22;;;17.30;99.90;;;;;;5048608;28;20103;-59
2021/06/03 05:01:17;;;;;;;10.88;3.22;;;17.40;99.90;;;;;;5046238;28;20025;-61
2021/06/03 05:03:42;;;;;;;5.55;3.20;;;17.40;99.90;;;;;;5048797;28;20028;-58
2021/06/03 05:06:08;;;;;;;5.97;3.40;;;17.50;99.90;;;;;;5052162;28;20035;-58
2021/06/03 05:08:34;;;;;;;4.65;3.10;;;17.50;99.90;;;;;;5052396;28;20491;-61
2021/06/03 05:10:59;;;;;;;8.93;3.60;;;17.60;99.90;;;;;;5052466;28;20182;-58
2021/06/03 05:13:25;;;;;;;8.07;3.50;;;17.70;99.90;;;;;;5051410;28;20056;-58
2021/06/03 05:15:50;;;;;;;4.90;3.17;;;17.80;99.90;;;;;;5052315;28;20036;-55
2021/06/03 05:18:16;;;;;;;6.53;3.20;;;17.90;99.90;;;;;;5052053;28;20048;-55
2021/06/03 05:20:41;;;;;;;6.18;3.17;;;18.00;99.90;;;;;;5051394;28;20057;-58
2021/06/03 05:23:07;;;;;;;6.32;3.10;;;18.00;99.90;;;;;;5051872;28;20083;-59
2021/06/03 05:25:33;;;;;;;4.47;3.08;;;18.10;99.90;;;;;;5054836;28;20029;-59
2021/06/03 05:28:00;;;;;;;8.57;3.53;;;18.20;99.90;;;;;;5051306;28;20200;-58
2021/06/03 05:30:26;;;;;;;5.05;3.33;;;18.20;99.90;;;;;;5046427;28;20569;-58
2021/06/03 05:32:52;;;;;;;6.78;3.55;;;18.30;99.90;;;;;;5055574;28;20124;-58
2021/06/03 05:35:19;;;;;;;3.92;3.35;;;18.30;99.90;;;;;;5051885;28;20445;-58
2021/06/03 05:37:45;;;;;;;6.05;3.03;;;18.40;99.90;;;;;;5051166;28;20414;-57
2021/06/03 05:40:14;;;;;;;5.68;2.97;;;18.40;99.90;;;;;;5051747;28;20028;-59
2021/06/03 05:42:40;;;;;;;9.00;3.05;;;18.40;99.90;;;;;;5050949;28;20115;-59
2021/06/03 05:45:11;;;;;;;3.92;3.00;;;18.50;99.90;;;;;;5050740;28;20104;-59
2021/06/03 05:47:37;;;;;;;7.13;3.78;;;18.50;99.90;;;;;;5052053;28;20450;-58
2021/06/03 05:50:05;;;;;;;6.43;3.28;;;18.50;99.90;;;;;;5051544;28;20085;-59
2021/06/03 05:52:31;;;;;;;4.97;3.00;;;18.50;99.90;;;;;;5050613;28;20037;-53
2021/06/03 05:54:56;;;;;;;10.57;3.38;;;18.60;99.90;;;;;;5039519;28;20032;-61
2021/06/03 05:57:22;;;;;;;6.72;3.20;;;18.60;99.90;;;;;;5052679;28;20036;-59
2021/06/03 05:59:49;;;;;;;4.97;3.30;;;18.70;99.90;;;;;;5051160;28;20624;-59
2021/06/03 06:02:20;;;;;;;5.60;3.10;;;18.80;99.90;;;;;;5053472;28;20132;-60
2021/06/03 06:07:30;;;;;;;4.55;2.83;;;19.00;99.90;;;;;;5056647;28;20036;-55
2021/06/03 06:09:56;;;;;;;4.35;2.83;;;19.10;99.90;;;;;;5051349;28;20029;-58
2021/06/03 06:12:21;;;;;;;6.43;2.78;;;19.30;99.90;;;;;;5050639;28;20462;-57
2021/06/03 06:14:47;;;;;;;4.50;2.65;;;19.30;99.90;;;;;;5053060;28;20090;-61
2021/06/03 06:17:12;;;;;;;5.10;2.90;;;19.50;99.90;;;;;;5051542;28;20029;-58
2021/06/03 06:19:39;;;;;;;5.93;2.67;;;19.60;99.90;;;;;;5051614;28;20105;-58
2021/06/03 06:22:05;;;;;;;7.82;2.72;;;19.70;99.90;;;;;;5033152;28;20033;-57
2021/06/03 06:24:30;;;;;;;3.58;2.83;;;19.70;99.90;;;;;;5051007;28;20028;-59
2021/06/03 06:26:58;;;;;;;4.30;2.63;;;19.70;99.90;;;;;;5051289;28;20041;-60
2021/06/03 06:29:23;;;;;;;3.47;2.53;;;19.80;99.90;;;;;;5050856;28;20041;-57
2021/06/03 06:31:49;;;;;;;4.30;2.70;;;19.80;99.90;;;;;;5051118;28;20146;-57
2021/06/03 06:34:14;;;;;;;7.90;3.10;;;19.90;99.90;;;;;;5050702;28;20432;-57
2021/06/03 06:36:41;;;;;;;4.70;3.08;;;19.90;99.90;;;;;;5051132;28;20052;-59
2021/06/03 06:39:06;;;;;;;5.88;3.63;;;19.90;99.90;;;;;;5051219;28;20040;-59
2021/06/03 06:41:32;;;;;;;6.65;3.40;;;19.90;99.90;;;;;;5050195;28;20025;-58
2021/06/03 06:43:57;;;;;;;5.97;3.35;;;19.90;99.90;;;;;;5050641;28;20404;-55
2021/06/03 06:46:23;;;;;;;7.70;3.33;;;19.90;99.90;;;;;;5051473;28;20110;-59
2021/06/03 06:48:48;;;;;;;7.25;3.92;;;19.80;99.90;;;;;;5050777;28;20106;-57
2021/06/03 06:51:14;;;;;;;7.18;3.70;;;19.80;99.90;;;;;;5049319;28;20024;-58
2021/06/03 06:53:40;;;;;;;10.02;4.15;;;19.70;99.90;;;;;;5054520;28;20016;-60
2021/06/03 06:56:05;;;;;;;10.57;3.85;;;19.70;99.90;;;;;;5049862;28;20028;-58
2021/06/03 06:58:31;;;;;;;5.75;3.80;;;19.70;99.90;;;;;;5055370;28;20079;-56
2021/06/03 07:00:57;;;;;;;9.75;4.47;;;19.60;99.90;;;;;;5046017;28;20043;-54
2021/06/03 07:03:22;;;;;;;12.77;5.47;;;19.50;99.90;;;;;;5053848;28;20078;-59
2021/06/03 07:05:48;;;;;;;9.68;4.88;;;19.40;99.90;;;;;;5050763;28;20021;-58
2021/06/03 07:08:15;;;;;;;9.80;5.18;;;19.40;99.90;;;;;;5052550;28;20032;-60
2021/06/03 07:10:42;;;;;;;10.50;5.07;;;19.40;99.90;;;;;;5052742;28;20086;-59
2021/06/03 07:13:08;;;;;;;11.82;5.47;;;19.30;99.90;;;;;;5047928;28;20598;-59
2021/06/03 07:15:34;;;;;;;12.23;5.43;;;19.20;99.90;;;;;;5054443;28;20037;-59
2021/06/03 07:17:59;;;;;;;10.07;6.18;;;19.30;99.90;;;;;;5058962;28;20196;-59
2021/06/03 07:20:25;;;;;;;10.40;6.15;;;19.20;99.90;;;;;;5049482;28;20032;-59
2021/06/03 07:22:53;;;;;;;12.85;6.13;;;19.20;99.90;;;;;;5052095;28;20075;-57
2021/06/03 07:25:21;;;;;;;9.15;5.43;;;19.20;99.90;;;;;;5049940;28;20064;-59
2021/06/03 07:27:48;;;;;;;12.57;5.30;;;19.30;99.90;;;;;;5057185;28;20024;-61
2021/06/03 07:30:16;;;;;;;10.90;5.65;;;19.30;99.90;;;;;;5035761;28;20499;-55
2021/06/03 07:32:41;;;;;;;10.52;6.35;;;19.40;99.90;;;;;;5052694;28;20040;-59
2021/06/03 07:35:09;;;;;;;11.43;5.68;;;19.50;99.90;;;;;;5048293;28;20021;-60
2021/06/03 07:37:37;;;;;;;11.10;5.85;;;19.60;99.90;;;;;;5047201;28;20023;-61
2021/06/03 07:40:04;;;;;;;8.57;4.90;;;19.60;99.90;;;;;;5051070;28;20033;-56
2021/06/03 07:42:30;;;;;;;10.05;5.05;;;19.80;99.90;;;;;;5052251;28;20037;-58
2021/06/03 07:44:55;;;;;;;8.15;5.32;;;19.80;99.90;;;;;;5050517;28;20489;-61
2021/06/03 07:47:21;;;;;;;9.52;5.10;;;19.80;99.90;;;;;;5049705;28;20025;-58
2021/06/03 07:49:47;;;;;;;13.05;5.80;;;19.90;99.90;;;;;;5052532;28;20028;-59
2021/06/03 07:52:12;;;;;;;12.30;6.00;;;20.00;99.90;;;;;;5048511;28;20020;-58
2021/06/03 07:54:38;;;;;;;16.48;6.63;;;20.00;99.90;;;;;;5046973;28;20394;-55
2021/06/03 07:57:04;;;;;;;14.80;5.93;;;19.90;99.90;;;;;;5050200;28;20487;-59
2021/06/03 07:59:30;;;;;;;15.25;7.43;;;19.90;99.90;;;;;;5030014;28;20036;-54
2021/06/03 08:01:56;;;;;;;15.75;7.93;;;19.90;99.90;;;;;;5047209;28;20052;-62
2021/06/03 08:04:22;;;;;;;16.55;7.32;;;19.90;99.90;;;;;;5049140;28;20495;-58
2021/06/03 08:06:48;;;;;;;18.48;8.73;;;19.80;99.90;;;;;;5052565;28;20475;-58
2021/06/03 08:09:14;;;;;;;10.00;6.78;;;19.60;99.90;;;;;;5052024;28;20032;-58
2021/06/03 08:11:43;;;;;;;15.52;9.07;;;19.60;99.90;;;;;;5048941;28;20029;-56
2021/06/03 08:14:08;;;;;;;18.45;9.48;;;19.60;99.90;;;;;;5049079;28;20032;-55
2021/06/03 08:16:34;;;;;;;15.70;10.15;;;19.50;99.90;;;;;;5047700;28;20028;-55
2021/06/03 08:18:59;;;;;;;14.35;9.48;;;19.50;99.90;;;;;;5044328;28;20479;-56
2021/06/03 08:21:25;;;;;;;19.20;9.73;;;19.50;99.90;;;;;;5044221;28;20044;-57
2021/06/03 08:23:51;;;;;;;12.68;9.07;;;19.60;99.90;;;;;;5045228;28;20112;-55
2021/06/03 08:26:17;;;;;;;19.67;10.07;;;19.70;99.90;;;;;;5046775;28;20048;-57
2021/06/03 08:28:43;;;;;;;14.15;9.48;;;19.80;99.90;;;;;;5046540;28;20487;-56
2021/06/03 08:31:09;;;;;;;18.70;9.80;;;19.90;99.90;;;;;;5044666;28;20053;-57
2021/06/03 08:33:35;;;;;;;15.15;9.23;;;19.90;99.90;;;;;;5048708;28;20020;-57
2021/06/03 08:36:01;;;;;;;13.45;8.20;;;19.90;99.90;;;;;;5042854;28;20394;-57
2021/06/03 08:38:26;;;;;;;17.25;8.43;;;19.90;99.90;;;;;;5044942;28;20037;-52
2021/06/03 08:40:56;;;;;;;19.52;8.27;;;19.90;99.90;;;;;;5050742;28;20407;-54
2021/06/03 08:43:24;;;;;;;15.40;9.45;;;19.80;99.90;;;;;;5048238;28;20428;-54
2021/06/03 08:45:49;;;;;;;16.38;9.55;;;19.80;99.90;;;;;;5029642;28;20028;-58
2021/06/03 08:48:16;;;;;;;18.02;9.43;;;19.80;99.90;;;;;;5045972;28;20025;-56
2021/06/03 08:50:46;;;;;;;17.95;9.60;;;19.80;99.90;;;;;;5045354;28;20028;-55
2021/06/03 08:53:12;;;;;;;17.63;10.48;;;19.70;99.90;;;;;;5046260;28;20024;-58
2021/06/03 08:58:26;;;;;;;19.67;11.50;;;19.70;99.90;;;;;;5046159;28;20602;-55
2021/06/03 09:00:52;;;;;;;22.35;12.73;;;19.70;99.90;;;;;;5049209;28;20432;-56
2021/06/03 09:03:18;;;;;;;18.75;11.38;;;19.70;99.90;;;;;;5047475;28;20112;-57
2021/06/03 09:05:45;;;;;;;20.85;12.95;;;19.60;99.90;;;;;;5045263;28;20144;-54
2021/06/03 09:08:21;;;;;;;21.50;13.27;;;19.50;99.90;;;;;;5051479;28;20071;-56
2021/06/03 09:10:52;;;;;;;24.83;14.82;;;19.50;99.90;;;;;;5043260;28;20025;-57
2021/06/03 09:13:23;;;;;;;26.38;14.70;;;19.50;99.90;;;;;;5046066;28;20697;-57
2021/06/03 09:16:14;;;;;;;22.30;14.38;;;19.50;99.90;;;;;;5046016;28;20082;-59
2021/06/03 09:18:41;;;;;;;24.42;15.05;;;19.40;99.90;;;;;;5047709;28;20025;-58
2021/06/03 09:21:12;;;;;;;32.47;17.33;;;19.50;99.90;;;;;;5047006;28;20032;-56
2021/06/03 09:23:41;;;;;;;28.52;17.90;;;19.50;99.90;;;;;;5046645;28;20041;-58
2021/06/03 09:26:11;;;;;;;24.85;14.48;;;19.50;99.90;;;;;;5045093;28;20099;-58
2021/06/03 09:28:40;;;;;;;22.20;13.65;;;19.50;99.90;;;;;;5044381;28;20444;-54
2021/06/03 09:31:18;;;;;;;19.63;11.77;;;19.60;99.90;;;;;;5044800;28;20099;-53
2021/06/03 09:33:48;;;;;;;21.52;13.25;;;19.60;99.90;;;;;;5044986;28;20033;-54
2021/06/03 09:36:30;;;;;;;24.75;13.30;;;19.70;99.90;;;;;;5046625;28;20024;-55
2021/06/03 09:39:06;;;;;;;18.02;10.52;;;19.70;99.90;;;;;;5046266;28;20552;-52
2021/06/03 09:41:34;;;;;;;18.58;9.73;;;19.70;99.90;;;;;;5045140;28;20492;-52
2021/06/03 09:44:04;;;;;;;14.55;10.32;;;19.60;99.90;;;;;;5049393;28;20045;-52
2021/06/03 09:46:35;;;;;;;18.60;11.05;;;19.60;99.90;;;;;;5077776;22;20053;-61
2021/06/03 09:49:03;;;;;;;15.40;10.60;;;19.60;99.90;;;;;;5068726;28;20022;-59
2021/06/03 09:51:33;;;;;;;15.23;10.93;;;19.70;99.90;;;;;;5072832;28;20123;-59
2021/06/03 09:54:07;;;;;;;15.45;10.38;;;19.80;99.90;;;;;;5070360;28;20034;-61
2021/06/03 09:56:42;;;;;;;12.45;9.40;;;19.80;99.90;;;;;;5056223;28;20028;-60
2021/06/03 09:59:16;;;;;;;18.83;10.70;;;19.90;99.90;;;;;;5071014;28;20438;-59
2021/06/03 10:01:57;;;;;;;15.23;9.10;;;20.00;99.90;;;;;;5070669;28;20040;-60
2021/06/03 10:04:49;;;;;;;15.80;10.27;;;19.90;99.90;;;;;;5070839;28;20103;-62
2021/06/03 10:07:16;;;;;;;16.05;9.98;;;20.00;99.90;;;;;;5066800;28;20036;-61
2021/06/03 10:09:44;;;;;;;17.45;10.60;;;20.00;99.90;;;;;;5070455;28;20094;-59
2021/06/03 10:12:32;;;;;;;16.67;10.70;;;20.10;99.90;;;;;;5070145;28;20024;-62
2021/06/03 10:15:22;;;;;;;15.45;9.93;;;20.20;99.90;;;;;;5054669;28;20040;-60
2021/06/03 10:18:07;;;;;;;15.65;11.65;;;20.20;99.90;;;;;;5071273;28;20040;-59
2021/06/03 10:20:40;;;;;;;;;;;20.20;99.90;;;;;;5068949;28;20032;-60
2021/06/03 10:23:20;;;;;;;16.20;10.55;;;20.10;99.90;;;;;;5066408;28;20002;-60
2021/06/03 10:25:50;;;;;;;21.13;12.57;;;20.00;99.90;;;;;;5066749;28;20032;-58
2021/06/03 10:28:19;;;;;;;20.83;12.18;;;20.00;99.90;;;;;;5071168;28;20501;-60
2021/06/03 10:30:53;;;;;;;18.13;10.32;;;20.00;99.90;;;;;;5074029;28;20032;-61
2021/06/03 10:33:21;;;;;;;;;;;20.00;99.90;;;;;;5074928;28;20033;-63
2021/06/03 10:35:50;;;;;;;11.68;7.95;;;20.00;99.90;;;;;;5073250;28;20007;-58
2021/06/03 10:38:15;;;;;;;13.88;7.78;;;19.90;99.90;;;;;;5072913;28;20028;-62
2021/06/03 10:40:49;;;;;;;13.90;8.07;;;20.00;99.90;;;;;;5075988;28;20047;-59
2021/06/03 10:43:15;;;;;;;10.33;7.60;;;20.10;99.90;;;;;;5068392;28;20028;-58
2021/06/03 10:45:42;;;;;;;12.23;6.90;;;20.20;99.90;;;;;;5069294;28;20033;-58
2021/06/03 10:48:09;;;;;;;11.00;6.53;;;20.40;99.90;;;;;;5070722;28;20024;-63
2021/06/03 10:50:41;;;;;;;9.95;6.22;;;20.50;99.90;;;;;;5071108;28;20029;-61
2021/06/03 10:53:09;;;;;;;11.00;5.03;;;20.50;99.90;;;;;;5070128;28;20406;-61
2021/06/03 10:55:38;;;;;;;8.27;5.53;;;20.50;99.90;;;;;;5069948;28;20023;-62
2021/06/03 10:58:09;;;;;;;9.63;6.28;;;20.40;99.90;;;;;;5070034;28;20446;-62
2021/06/03 11:00:40;;;;;;;10.65;6.80;;;20.40;99.90;;;;;;5071457;28;20032;-60
2021/06/03 11:03:09;;;;;;;9.05;7.18;;;20.30;99.90;;;;;;5068880;28;20386;-60
2021/06/03 11:05:41;;;;;;;11.43;8.05;;;20.40;99.90;;;;;;5069760;28;20382;-60
2021/06/03 11:08:39;;;;;;;15.10;9.27;;;20.40;99.90;;;;;;5070048;28;20031;-62
2021/06/03 11:11:17;;;;;;;11.93;7.82;;;20.50;99.90;;;;;;5070040;28;20025;-60
2021/06/03 11:13:45;;;;;;;8.57;6.65;;;20.60;99.90;;;;;;5068022;28;20024;-59
2021/06/03 11:16:22;;;;;;;14.57;8.35;;;20.80;99.90;;;;;;5069710;28;20025;-59
2021/06/03 11:18:48;;;;;;;12.45;8.13;;;20.90;99.90;;;;;;5069502;28;20108;-60
2021/06/03 11:21:35;;;;;;;12.23;8.45;;;21.00;99.90;;;;;;5069167;28;20103;-61
2021/06/03 11:24:00;;;;;;;13.93;8.52;;;21.10;99.90;;;;;;5063705;28;20037;-59
2021/06/03 11:29:10;;;;;;;16.60;8.57;;;21.10;99.90;;;;;;5065182;28;20042;-65
2021/06/03 11:31:37;;;;;;;14.88;8.95;;;21.20;99.90;;;;;;5069565;28;20032;-59
2021/06/03 11:34:14;;;;;;;12.65;8.30;;;21.30;99.90;;;;;;5068388;28;20109;-61
2021/06/03 11:36:43;;;;;;;12.35;8.10;;;21.30;99.90;;;;;;5068884;28;20069;-61
2021/06/03 11:39:31;;;;;;;11.82;7.53;;;21.30;99.90;;;;;;5067746;28;20844;-57
2021/06/03 11:42:22;;;;;;;14.13;7.93;;;21.40;99.90;;;;;;5066616;28;20044;-57
2021/06/03 11:45:03;;;;;;;10.90;6.40;;;21.40;99.90;;;;;;5063907;28;20032;-57
2021/06/03 11:47:52;;;;;;;10.75;6.60;;;21.30;99.90;;;;;;5068805;28;20025;-59
2021/06/03 11:50:18;;;;;;;10.23;6.70;;;21.40;99.90;;;;;;5068189;28;20182;-54
2021/06/03 11:53:10;;;;;;;22.60;7.28;;;21.60;99.90;;;;;;5068806;28;20116;-54
2021/06/03 11:55:43;;;;;;;11.07;6.05;;;21.70;99.90;;;;;;5068509;28;20028;-60
2021/06/03 11:58:30;;;;;;;12.45;7.80;;;21.70;99.90;;;;;;5065601;28;20044;-58
2021/06/03 12:01:27;;;;;;;14.80;8.10;;;21.70;99.90;;;;;;5048109;28;20039;-58
2021/06/03 12:04:08;;;;;;;12.95;7.47;;;21.80;99.90;;;;;;5063401;28;20526;-58
2021/06/03 12:06:34;;;;;;;11.40;7.47;;;21.90;99.90;;;;;;5052816;28;20028;-58
2021/06/03 12:09:15;;;;;;;9.75;7.93;;;21.90;99.90;;;;;;5069579;28;20048;-59
2021/06/03 12:11:42;;;;;;;12.95;7.75;;;22.00;99.90;;;;;;5065725;28;20025;-58
2021/06/03 12:14:09;;;;;;;12.95;7.22;;;21.90;99.90;;;;;;5068496;28;20031;-61
2021/06/03 12:16:40;;;;;;;11.27;6.72;;;22.10;99.90;;;;;;5068593;28;20394;-57
2021/06/03 12:19:17;;;;;;;10.80;6.90;;;22.20;99.90;;;;;;5068637;28;20029;-59
2021/06/03 12:21:46;;;;;;;12.68;6.82;;;22.60;99.90;;;;;;5069322;28;20032;-61
2021/06/03 12:24:12;;;;;;;9.07;5.78;;;22.70;99.90;;;;;;5068878;28;20036;-61
2021/06/03 12:26:41;;;;;;;9.85;7.18;;;22.70;99.90;;;;;;5067646;28;20025;-61
2021/06/03 12:29:23;;;;;;;8.32;6.97;;;22.70;99.90;;;;;;5068246;28;20033;-60
2021/06/03 12:31:49;;;;;;;7.80;6.10;;;23.00;99.90;;;;;;5063959;28;20048;-63
2021/06/03 12:34:23;;;;;;;7.78;5.70;;;23.60;99.90;;;;;;5067930;28;20032;-60
2021/06/03 12:36:49;;;;;;;;;;;24.00;99.90;;;;;;5066433;28;20402;-56
2021/06/03 12:39:15;;;;;;;14.07;7.10;;;24.30;99.90;;;;;;5068696;28;19908;-59
2021/06/03 12:41:42;;;;;;;9.75;5.80;;;24.20;99.90;;;;;;5061830;28;20035;-61
2021/06/03 12:44:13;;;;;;;8.68;4.82;;;24.50;99.90;;;;;;5068508;28;20447;-57
2021/06/03 12:46:44;;;;;;;8.00;5.72;;;24.80;99.90;;;;;;5061610;28;20075;-59
2021/06/03 12:49:10;;;;;;;8.02;6.03;;;24.80;99.90;;;;;;5067670;28;20016;-62
2021/06/03 12:51:56;;;;;;;10.50;6.25;;;24.80;99.90;;;;;;5063074;28;20521;-63
2021/06/03 12:54:29;;;;;;;11.25;6.13;;;24.70;99.90;;;;;;5049739;28;20056;-59
2021/06/03 12:56:58;;;;;;;8.00;5.45;;;24.50;99.90;;;;;;5068123;28;20427;-59
2021/06/03 12:59:26;;;;;;;11.88;7.05;;;24.50;99.90;;;;;;5064733;28;20063;-59